sensor_id;sensor_type;location;lat;lon;timestamp;P1;durP1;ratioP1;P2;durP2;ratioP2
82920;SDS011;72696;52.372;9.722;2023-09-19T00:01:45;2.67;;;2.08;;
82920;SDS011;72696;52.372;9.722;2023-09-19T00:04:14;3.13;;;1.90;;
82920;SDS011;72696;52.372;9.722;2023-09-19T00:06:40;3.38;;;1.95;;
82920;SDS011;72696;52.372;9.722;2023-09-19T00:09:05;2.58;;;1.80;;
82920;SDS011;72696;52.372;9.722;2023-09-19T00:11:35;4.20;;;2.10;;
82920;SDS011;72696;52.372;9.722;2023-09-19T00:14:01;2.65;;;2.13;;
82920;SDS011;72696;52.372;9.722;2023-09-19T00:16:26;4.22;;;2.40;;
82920;SDS011;72696;52.372;9.722;2023-09-19T00:18:52;3.58;;;2.30;;
82920;SDS011;72696;52.372;9.722;2023-09-19T00:21:17;3.20;;;2.40;;
82920;SDS011;72696;52.372;9.722;2023-09-19T00:23:45;5.07;;;2.30;;
82920;SDS011;72696;52.372;9.722;2023-09-19T00:26:11;3.40;;;2.63;;
82920;SDS011;72696;52.372;9.722;2023-09-19T00:28:36;3.53;;;2.35;;
82920;SDS011;72696;52.372;9.722;2023-09-19T00:31:02;3.70;;;2.08;;
82920;SDS011;72696;52.372;9.722;2023-09-19T00:33:28;5.22;;;2.55;;
82920;SDS011;72696;52.372;9.722;2023-09-19T00:35:57;3.55;;;2.55;;
82920;SDS011;72696;52.372;9.722;2023-09-19T00:38:23;6.22;;;2.97;;
82920;SDS011;72696;52.372;9.722;2023-09-19T00:40:52;5.15;;;2.70;;
82920;SDS011;72696;52.372;9.722;2023-09-19T00:43:18;6.18;;;3.22;;
82920;SDS011;72696;52.372;9.722;2023-09-19T00:45:44;7.93;;;3.13;;
82920;SDS011;72696;52.372;9.722;2023-09-19T00:48:11;3.90;;;2.90;;
82920;SDS011;72696;52.372;9.722;2023-09-19T00:50:37;3.97;;;2.80;;
82920;SDS011;72696;52.372;9.722;2023-09-19T00:53:05;4.93;;;3.05;;
82920;SDS011;72696;52.372;9.722;2023-09-19T00:55:33;3.90;;;2.78;;
82920;SDS011;72696;52.372;9.722;2023-09-19T00:57:59;6.72;;;3.22;;
82920;SDS011;72696;52.372;9.722;2023-09-19T01:00:43;5.82;;;3.20;;
82920;SDS011;72696;52.372;9.722;2023-09-19T01:03:09;4.32;;;2.90;;
82920;SDS011;72696;52.372;9.722;2023-09-19T01:05:35;7.50;;;3.28;;
82920;SDS011;72696;52.372;9.722;2023-09-19T01:08:01;6.03;;;3.00;;
82920;SDS011;72696;52.372;9.722;2023-09-19T01:10:26;7.65;;;3.35;;
82920;SDS011;72696;52.372;9.722;2023-09-19T01:23:50;5.95;;;3.25;;
82920;SDS011;72696;52.372;9.722;2023-09-19T01:32:17;5.47;;;3.40;;
82920;SDS011;72696;52.372;9.722;2023-09-19T01:34:47;4.15;;;3.33;;
82920;SDS011;72696;52.372;9.722;2023-09-19T01:37:13;5.20;;;3.10;;
82920;SDS011;72696;52.372;9.722;2023-09-19T01:39:46;5.97;;;3.13;;
82920;SDS011;72696;52.372;9.722;2023-09-19T01:48:02;4.57;;;3.42;;
82920;SDS011;72696;52.372;9.722;2023-09-19T01:50:44;6.25;;;3.30;;
82920;SDS011;72696;52.372;9.722;2023-09-19T01:53:23;7.80;;;4.00;;
82920;SDS011;72696;52.372;9.722;2023-09-19T01:55:53;6.78;;;3.80;;
82920;SDS011;72696;52.372;9.722;2023-09-19T02:00:48;8.90;;;4.03;;
82920;SDS011;72696;52.372;9.722;2023-09-19T02:03:17;4.30;;;3.20;;
82920;SDS011;72696;52.372;9.722;2023-09-19T02:05:47;9.90;;;3.92;;
82920;SDS011;72696;52.372;9.722;2023-09-19T02:08:16;8.68;;;4.30;;
82920;SDS011;72696;52.372;9.722;2023-09-19T02:10:43;5.63;;;4.22;;
82920;SDS011;72696;52.372;9.722;2023-09-19T02:13:14;8.43;;;4.03;;
82920;SDS011;72696;52.372;9.722;2023-09-19T02:15:42;6.22;;;3.92;;
82920;SDS011;72696;52.372;9.722;2023-09-19T02:18:09;4.90;;;3.78;;
82920;SDS011;72696;52.372;9.722;2023-09-19T02:20:35;6.15;;;3.65;;
82920;SDS011;72696;52.372;9.722;2023-09-19T02:23:00;7.65;;;4.25;;
82920;SDS011;72696;52.372;9.722;2023-09-19T02:25:27;6.50;;;4.20;;
82920;SDS011;72696;52.372;9.722;2023-09-19T02:27:53;5.00;;;3.95;;
82920;SDS011;72696;52.372;9.722;2023-09-19T02:30:19;7.18;;;4.10;;
82920;SDS011;72696;52.372;9.722;2023-09-19T02:32:46;7.03;;;3.75;;
82920;SDS011;72696;52.372;9.722;2023-09-19T02:35:11;6.90;;;4.13;;
82920;SDS011;72696;52.372;9.722;2023-09-19T02:37:37;5.60;;;3.90;;
82920;SDS011;72696;52.372;9.722;2023-09-19T02:40:03;6.82;;;4.10;;
82920;SDS011;72696;52.372;9.722;2023-09-19T02:42:44;5.70;;;4.15;;
82920;SDS011;72696;52.372;9.722;2023-09-19T02:45:18;6.70;;;4.30;;
82920;SDS011;72696;52.372;9.722;2023-09-19T02:47:44;8.57;;;4.38;;
82920;SDS011;72696;52.372;9.722;2023-09-19T02:50:10;8.30;;;4.47;;
82920;SDS011;72696;52.372;9.722;2023-09-19T02:55:08;6.00;;;4.45;;
82920;SDS011;72696;52.372;9.722;2023-09-19T02:57:34;6.75;;;4.63;;
82920;SDS011;72696;52.372;9.722;2023-09-19T03:00:06;9.88;;;4.50;;
82920;SDS011;72696;52.372;9.722;2023-09-19T03:02:33;7.20;;;4.38;;
82920;SDS011;72696;52.372;9.722;2023-09-19T03:04:59;6.78;;;4.22;;
82920;SDS011;72696;52.372;9.722;2023-09-19T03:07:25;7.38;;;3.95;;
82920;SDS011;72696;52.372;9.722;2023-09-19T03:09:50;5.20;;;4.05;;
82920;SDS011;72696;52.372;9.722;2023-09-19T03:12:18;8.90;;;4.18;;
82920;SDS011;72696;52.372;9.722;2023-09-19T03:14:43;7.78;;;4.60;;
82920;SDS011;72696;52.372;9.722;2023-09-19T03:17:08;6.43;;;4.45;;
82920;SDS011;72696;52.372;9.722;2023-09-19T03:19:34;7.32;;;4.28;;
82920;SDS011;72696;52.372;9.722;2023-09-19T03:21:59;6.95;;;4.43;;
82920;SDS011;72696;52.372;9.722;2023-09-19T03:24:25;7.57;;;4.38;;
82920;SDS011;72696;52.372;9.722;2023-09-19T03:26:51;5.85;;;3.80;;
82920;SDS011;72696;52.372;9.722;2023-09-19T03:29:17;7.03;;;4.13;;
82920;SDS011;72696;52.372;9.722;2023-09-19T03:31:42;8.90;;;3.60;;
82920;SDS011;72696;52.372;9.722;2023-09-19T03:34:08;6.07;;;3.45;;
82920;SDS011;72696;52.372;9.722;2023-09-19T03:36:34;6.63;;;3.70;;
82920;SDS011;72696;52.372;9.722;2023-09-19T03:39:00;6.43;;;3.45;;
82920;SDS011;72696;52.372;9.722;2023-09-19T03:41:25;6.68;;;3.45;;
82920;SDS011;72696;52.372;9.722;2023-09-19T03:43:51;5.35;;;3.40;;
82920;SDS011;72696;52.372;9.722;2023-09-19T03:46:16;6.13;;;3.30;;
82920;SDS011;72696;52.372;9.722;2023-09-19T03:48:42;8.65;;;3.25;;
82920;SDS011;72696;52.372;9.722;2023-09-19T03:51:07;6.05;;;3.03;;
82920;SDS011;72696;52.372;9.722;2023-09-19T03:53:33;6.28;;;3.28;;
82920;SDS011;72696;52.372;9.722;2023-09-19T03:55:58;6.13;;;3.30;;
82920;SDS011;72696;52.372;9.722;2023-09-19T03:58:25;5.40;;;3.20;;
82920;SDS011;72696;52.372;9.722;2023-09-19T04:00:50;6.78;;;3.13;;
82920;SDS011;72696;52.372;9.722;2023-09-19T04:03:16;6.03;;;3.35;;
82920;SDS011;72696;52.372;9.722;2023-09-19T04:05:45;10.85;;;3.55;;
82920;SDS011;72696;52.372;9.722;2023-09-19T04:08:12;8.57;;;3.35;;
82920;SDS011;72696;52.372;9.722;2023-09-19T04:10:38;6.78;;;3.00;;
82920;SDS011;72696;52.372;9.722;2023-09-19T04:13:03;6.25;;;3.30;;
82920;SDS011;72696;52.372;9.722;2023-09-19T04:15:29;9.07;;;2.97;;
82920;SDS011;72696;52.372;9.722;2023-09-19T04:17:54;4.45;;;2.72;;
82920;SDS011;72696;52.372;9.722;2023-09-19T04:20:20;6.60;;;2.88;;
82920;SDS011;72696;52.372;9.722;2023-09-19T04:22:45;6.65;;;3.45;;
82920;SDS011;72696;52.372;9.722;2023-09-19T04:25:11;6.05;;;2.95;;
82920;SDS011;72696;52.372;9.722;2023-09-19T04:27:37;6.32;;;3.33;;
82920;SDS011;72696;52.372;9.722;2023-09-19T04:30:03;5.78;;;3.92;;
82920;SDS011;72696;52.372;9.722;2023-09-19T04:32:34;8.40;;;3.63;;
82920;SDS011;72696;52.372;9.722;2023-09-19T04:35:01;8.85;;;3.70;;
82920;SDS011;72696;52.372;9.722;2023-09-19T04:37:30;6.60;;;3.72;;
82920;SDS011;72696;52.372;9.722;2023-09-19T04:39:55;5.53;;;3.20;;
82920;SDS011;72696;52.372;9.722;2023-09-19T04:42:21;6.80;;;3.03;;
82920;SDS011;72696;52.372;9.722;2023-09-19T04:44:49;7.78;;;3.45;;
82920;SDS011;72696;52.372;9.722;2023-09-19T04:47:14;6.75;;;3.13;;
82920;SDS011;72696;52.372;9.722;2023-09-19T04:49:41;6.50;;;3.28;;
82920;SDS011;72696;52.372;9.722;2023-09-19T04:52:06;7.57;;;3.55;;
82920;SDS011;72696;52.372;9.722;2023-09-19T04:54:32;5.95;;;4.10;;
82920;SDS011;72696;52.372;9.722;2023-09-19T04:56:58;5.95;;;3.72;;
82920;SDS011;72696;52.372;9.722;2023-09-19T04:59:25;5.25;;;3.30;;
82920;SDS011;72696;52.372;9.722;2023-09-19T05:01:50;7.25;;;3.72;;
82920;SDS011;72696;52.372;9.722;2023-09-19T05:04:16;7.22;;;3.60;;
82920;SDS011;72696;52.372;9.722;2023-09-19T05:06:41;9.80;;;3.78;;
82920;SDS011;72696;52.372;9.722;2023-09-19T05:09:07;9.48;;;4.57;;
82920;SDS011;72696;52.372;9.722;2023-09-19T05:11:33;9.68;;;4.93;;
82920;SDS011;72696;52.372;9.722;2023-09-19T05:13:59;7.03;;;4.50;;
82920;SDS011;72696;52.372;9.722;2023-09-19T05:16:28;10.98;;;4.88;;
82920;SDS011;72696;52.372;9.722;2023-09-19T05:18:56;9.70;;;4.93;;
82920;SDS011;72696;52.372;9.722;2023-09-19T05:21:23;8.13;;;4.57;;
82920;SDS011;72696;52.372;9.722;2023-09-19T05:23:49;9.68;;;4.88;;
82920;SDS011;72696;52.372;9.722;2023-09-19T05:26:17;11.27;;;5.60;;
82920;SDS011;72696;52.372;9.722;2023-09-19T05:28:43;8.75;;;5.10;;
82920;SDS011;72696;52.372;9.722;2023-09-19T05:31:08;8.88;;;4.82;;
82920;SDS011;72696;52.372;9.722;2023-09-19T05:33:34;8.85;;;4.85;;
82920;SDS011;72696;52.372;9.722;2023-09-19T05:35:59;12.45;;;5.03;;
82920;SDS011;72696;52.372;9.722;2023-09-19T05:38:24;11.35;;;4.65;;
82920;SDS011;72696;52.372;9.722;2023-09-19T05:40:52;9.73;;;5.00;;
82920;SDS011;72696;52.372;9.722;2023-09-19T05:43:17;8.88;;;5.10;;
82920;SDS011;72696;52.372;9.722;2023-09-19T05:45:43;8.43;;;4.72;;
82920;SDS011;72696;52.372;9.722;2023-09-19T05:48:13;8.00;;;4.65;;
82920;SDS011;72696;52.372;9.722;2023-09-19T05:50:40;7.25;;;4.70;;
82920;SDS011;72696;52.372;9.722;2023-09-19T05:53:05;7.97;;;5.13;;
82920;SDS011;72696;52.372;9.722;2023-09-19T05:55:31;11.55;;;5.60;;
82920;SDS011;72696;52.372;9.722;2023-09-19T05:57:57;9.82;;;4.95;;
82920;SDS011;72696;52.372;9.722;2023-09-19T06:00:23;11.02;;;5.72;;
82920;SDS011;72696;52.372;9.722;2023-09-19T06:02:50;8.65;;;4.82;;
82920;SDS011;72696;52.372;9.722;2023-09-19T06:05:17;11.23;;;5.43;;
82920;SDS011;72696;52.372;9.722;2023-09-19T06:07:42;9.38;;;4.85;;
82920;SDS011;72696;52.372;9.722;2023-09-19T06:10:07;7.47;;;5.20;;
82920;SDS011;72696;52.372;9.722;2023-09-19T06:12:38;7.65;;;4.60;;
82920;SDS011;72696;52.372;9.722;2023-09-19T06:15:04;11.68;;;5.10;;
82920;SDS011;72696;52.372;9.722;2023-09-19T06:17:31;8.10;;;4.60;;
82920;SDS011;72696;52.372;9.722;2023-09-19T06:19:56;10.68;;;5.07;;
82920;SDS011;72696;52.372;9.722;2023-09-19T06:22:21;11.75;;;4.95;;
82920;SDS011;72696;52.372;9.722;2023-09-19T06:24:47;12.20;;;5.25;;
82920;SDS011;72696;52.372;9.722;2023-09-19T06:27:13;8.73;;;4.70;;
82920;SDS011;72696;52.372;9.722;2023-09-19T06:29:38;6.70;;;4.88;;
82920;SDS011;72696;52.372;9.722;2023-09-19T06:32:10;8.85;;;4.90;;
82920;SDS011;72696;52.372;9.722;2023-09-19T06:34:36;11.82;;;4.57;;
82920;SDS011;72696;52.372;9.722;2023-09-19T06:37:03;8.48;;;5.10;;
82920;SDS011;72696;52.372;9.722;2023-09-19T06:39:29;9.13;;;4.97;;
82920;SDS011;72696;52.372;9.722;2023-09-19T06:41:56;12.40;;;5.60;;
82920;SDS011;72696;52.372;9.722;2023-09-19T06:44:21;8.02;;;4.82;;
82920;SDS011;72696;52.372;9.722;2023-09-19T06:46:50;8.98;;;4.60;;
82920;SDS011;72696;52.372;9.722;2023-09-19T06:49:16;6.95;;;4.22;;
82920;SDS011;72696;52.372;9.722;2023-09-19T06:51:42;11.35;;;4.53;;
82920;SDS011;72696;52.372;9.722;2023-09-19T06:54:08;8.30;;;4.25;;
82920;SDS011;72696;52.372;9.722;2023-09-19T06:56:34;8.95;;;4.57;;
82920;SDS011;72696;52.372;9.722;2023-09-19T06:58:59;7.07;;;3.95;;
82920;SDS011;72696;52.372;9.722;2023-09-19T07:01:25;9.00;;;4.38;;
82920;SDS011;72696;52.372;9.722;2023-09-19T07:03:51;6.57;;;3.80;;
82920;SDS011;72696;52.372;9.722;2023-09-19T07:06:18;12.48;;;3.95;;
82920;SDS011;72696;52.372;9.722;2023-09-19T07:08:43;11.10;;;3.10;;
82920;SDS011;72696;52.372;9.722;2023-09-19T07:11:10;8.25;;;2.90;;
82920;SDS011;72696;52.372;9.722;2023-09-19T07:13:37;9.10;;;3.40;;
82920;SDS011;72696;52.372;9.722;2023-09-19T07:16:03;10.50;;;3.17;;
82920;SDS011;72696;52.372;9.722;2023-09-19T07:18:29;6.55;;;2.65;;
82920;SDS011;72696;52.372;9.722;2023-09-19T07:20:56;8.85;;;3.00;;
82920;SDS011;72696;52.372;9.722;2023-09-19T07:23:24;7.20;;;2.88;;
82920;SDS011;72696;52.372;9.722;2023-09-19T07:25:51;11.10;;;3.15;;
82920;SDS011;72696;52.372;9.722;2023-09-19T07:28:16;10.88;;;3.40;;
82920;SDS011;72696;52.372;9.722;2023-09-19T07:30:42;7.28;;;2.80;;
82920;SDS011;72696;52.372;9.722;2023-09-19T07:33:07;8.68;;;2.65;;
82920;SDS011;72696;52.372;9.722;2023-09-19T07:35:36;8.02;;;2.42;;
82920;SDS011;72696;52.372;9.722;2023-09-19T07:38:02;7.13;;;2.72;;
82920;SDS011;72696;52.372;9.722;2023-09-19T07:40:28;6.70;;;2.53;;
82920;SDS011;72696;52.372;9.722;2023-09-19T07:42:54;8.70;;;2.58;;
82920;SDS011;72696;52.372;9.722;2023-09-19T07:45:20;6.35;;;2.13;;
82920;SDS011;72696;52.372;9.722;2023-09-19T07:47:46;6.63;;;2.50;;
82920;SDS011;72696;52.372;9.722;2023-09-19T07:50:12;7.25;;;2.33;;
82920;SDS011;72696;52.372;9.722;2023-09-19T07:52:38;7.03;;;2.53;;
82920;SDS011;72696;52.372;9.722;2023-09-19T07:55:07;9.13;;;2.70;;
82920;SDS011;72696;52.372;9.722;2023-09-19T07:57:36;5.88;;;2.38;;
82920;SDS011;72696;52.372;9.722;2023-09-19T08:00:02;10.95;;;2.78;;
82920;SDS011;72696;52.372;9.722;2023-09-19T08:02:30;9.07;;;2.80;;
82920;SDS011;72696;52.372;9.722;2023-09-19T08:04:59;7.35;;;2.70;;
82920;SDS011;72696;52.372;9.722;2023-09-19T08:07:25;5.35;;;2.28;;
82920;SDS011;72696;52.372;9.722;2023-09-19T08:09:50;8.73;;;2.50;;
82920;SDS011;72696;52.372;9.722;2023-09-19T08:12:16;6.78;;;2.53;;
82920;SDS011;72696;52.372;9.722;2023-09-19T08:14:41;6.03;;;2.58;;
82920;SDS011;72696;52.372;9.722;2023-09-19T08:17:07;11.13;;;2.60;;
82920;SDS011;72696;52.372;9.722;2023-09-19T08:19:33;6.15;;;2.88;;
82920;SDS011;72696;52.372;9.722;2023-09-19T08:21:59;7.28;;;2.47;;
82920;SDS011;72696;52.372;9.722;2023-09-19T08:24:25;7.45;;;2.67;;
82920;SDS011;72696;52.372;9.722;2023-09-19T08:26:54;5.75;;;2.13;;
82920;SDS011;72696;52.372;9.722;2023-09-19T08:29:20;6.75;;;2.50;;
82920;SDS011;72696;52.372;9.722;2023-09-19T08:31:45;6.25;;;2.50;;
82920;SDS011;72696;52.372;9.722;2023-09-19T08:34:14;4.85;;;2.33;;
82920;SDS011;72696;52.372;9.722;2023-09-19T08:36:43;6.85;;;2.30;;
82920;SDS011;72696;52.372;9.722;2023-09-19T08:39:10;7.35;;;2.50;;
82920;SDS011;72696;52.372;9.722;2023-09-19T08:41:36;4.45;;;1.90;;
82920;SDS011;72696;52.372;9.722;2023-09-19T08:44:01;6.25;;;2.47;;
82920;SDS011;72696;52.372;9.722;2023-09-19T08:46:27;4.30;;;2.00;;
82920;SDS011;72696;52.372;9.722;2023-09-19T08:49:03;7.10;;;2.28;;
82920;SDS011;72696;52.372;9.722;2023-09-19T08:51:42;7.55;;;2.20;;
82920;SDS011;72696;52.372;9.722;2023-09-19T08:54:14;5.68;;;2.33;;
82920;SDS011;72696;52.372;9.722;2023-09-19T08:56:51;5.85;;;2.22;;
82920;SDS011;72696;52.372;9.722;2023-09-19T08:59:20;6.78;;;2.10;;
82920;SDS011;72696;52.372;9.722;2023-09-19T09:01:49;5.55;;;2.10;;
82920;SDS011;72696;52.372;9.722;2023-09-19T09:04:18;5.97;;;2.30;;
82920;SDS011;72696;52.372;9.722;2023-09-19T09:06:44;4.45;;;2.20;;
82920;SDS011;72696;52.372;9.722;2023-09-19T09:09:10;8.85;;;2.50;;
82920;SDS011;72696;52.372;9.722;2023-09-19T09:11:36;5.68;;;2.40;;
82920;SDS011;72696;52.372;9.722;2023-09-19T09:14:05;6.95;;;2.50;;
82920;SDS011;72696;52.372;9.722;2023-09-19T09:16:32;9.63;;;2.80;;
82920;SDS011;72696;52.372;9.722;2023-09-19T09:18:57;8.05;;;2.45;;
82920;SDS011;72696;52.372;9.722;2023-09-19T09:21:26;5.32;;;2.83;;
82920;SDS011;72696;52.372;9.722;2023-09-19T09:23:55;5.85;;;2.35;;
82920;SDS011;72696;52.372;9.722;2023-09-19T09:29:05;5.90;;;2.50;;
82920;SDS011;72696;52.372;9.722;2023-09-19T09:31:30;6.32;;;2.70;;
82920;SDS011;72696;52.372;9.722;2023-09-19T09:33:56;3.72;;;2.13;;
82920;SDS011;72696;52.372;9.722;2023-09-19T09:36:36;5.63;;;2.95;;
82920;SDS011;72696;52.372;9.722;2023-09-19T09:39:03;5.97;;;2.47;;
82920;SDS011;72696;52.372;9.722;2023-09-19T09:41:41;6.00;;;2.30;;
82920;SDS011;72696;52.372;9.722;2023-09-19T09:44:16;7.80;;;2.38;;
82920;SDS011;72696;52.372;9.722;2023-09-19T09:49:35;7.38;;;2.92;;
82920;SDS011;72696;52.372;9.722;2023-09-19T09:54:32;4.93;;;2.13;;
82920;SDS011;72696;52.372;9.722;2023-09-19T09:57:01;7.68;;;2.70;;
82920;SDS011;72696;52.372;9.722;2023-09-19T09:59:54;6.03;;;2.25;;
82920;SDS011;72696;52.372;9.722;2023-09-19T10:02:40;7.10;;;2.30;;
82920;SDS011;72696;52.372;9.722;2023-09-19T10:05:24;6.07;;;2.35;;
82920;SDS011;72696;52.372;9.722;2023-09-19T10:07:52;10.45;;;3.45;;
82920;SDS011;72696;52.372;9.722;2023-09-19T10:13:22;9.20;;;2.47;;
82920;SDS011;72696;52.372;9.722;2023-09-19T10:15:52;5.40;;;2.58;;
82920;SDS011;72696;52.372;9.722;2023-09-19T10:18:20;8.00;;;2.50;;
82920;SDS011;72696;52.372;9.722;2023-09-19T10:20:47;5.72;;;2.75;;
82920;SDS011;72696;52.372;9.722;2023-09-19T10:23:15;7.50;;;2.42;;
82920;SDS011;72696;52.372;9.722;2023-09-19T10:25:47;7.53;;;2.72;;
82920;SDS011;72696;52.372;9.722;2023-09-19T10:28:14;6.55;;;2.42;;
82920;SDS011;72696;52.372;9.722;2023-09-19T10:30:44;7.05;;;2.88;;
82920;SDS011;72696;52.372;9.722;2023-09-19T10:33:16;4.38;;;2.42;;
82920;SDS011;72696;52.372;9.722;2023-09-19T10:35:44;5.05;;;2.90;;
82920;SDS011;72696;52.372;9.722;2023-09-19T10:38:10;8.50;;;3.03;;
82920;SDS011;72696;52.372;9.722;2023-09-19T10:40:37;10.15;;;3.17;;
82920;SDS011;72696;52.372;9.722;2023-09-19T10:43:08;10.20;;;2.70;;
82920;SDS011;72696;52.372;9.722;2023-09-19T10:45:36;5.80;;;2.60;;
82920;SDS011;72696;52.372;9.722;2023-09-19T10:48:05;7.68;;;3.17;;
82920;SDS011;72696;52.372;9.722;2023-09-19T10:50:36;5.97;;;2.58;;
82920;SDS011;72696;52.372;9.722;2023-09-19T10:53:10;6.40;;;2.50;;
82920;SDS011;72696;52.372;9.722;2023-09-19T10:55:42;5.47;;;2.53;;
82920;SDS011;72696;52.372;9.722;2023-09-19T10:58:23;7.03;;;2.50;;
82920;SDS011;72696;52.372;9.722;2023-09-19T11:00:54;7.45;;;2.80;;
82920;SDS011;72696;52.372;9.722;2023-09-19T11:03:21;6.85;;;2.65;;
82920;SDS011;72696;52.372;9.722;2023-09-19T11:11:46;4.90;;;2.35;;
82920;SDS011;72696;52.372;9.722;2023-09-19T11:30:50;7.50;;;2.47;;
82920;SDS011;72696;52.372;9.722;2023-09-19T11:33:21;7.18;;;2.67;;
82920;SDS011;72696;52.372;9.722;2023-09-19T11:43:45;7.03;;;2.58;;
82920;SDS011;72696;52.372;9.722;2023-09-19T11:46:11;6.00;;;2.60;;
82920;SDS011;72696;52.372;9.722;2023-09-19T11:48:38;9.02;;;2.63;;
82920;SDS011;72696;52.372;9.722;2023-09-19T11:51:09;4.38;;;2.05;;
82920;SDS011;72696;52.372;9.722;2023-09-19T11:53:47;6.05;;;2.75;;
82920;SDS011;72696;52.372;9.722;2023-09-19T11:56:15;4.60;;;2.38;;
82920;SDS011;72696;52.372;9.722;2023-09-19T11:58:42;4.90;;;2.30;;
82920;SDS011;72696;52.372;9.722;2023-09-19T12:01:20;4.05;;;2.33;;
82920;SDS011;72696;52.372;9.722;2023-09-19T12:03:53;6.15;;;2.72;;
82920;SDS011;72696;52.372;9.722;2023-09-19T12:06:22;8.80;;;3.60;;
82920;SDS011;72696;52.372;9.722;2023-09-19T12:08:48;7.20;;;2.80;;
82920;SDS011;72696;52.372;9.722;2023-09-19T12:11:15;6.10;;;3.13;;
82920;SDS011;72696;52.372;9.722;2023-09-19T12:13:44;5.68;;;2.70;;
82920;SDS011;72696;52.372;9.722;2023-09-19T12:16:11;6.13;;;2.70;;
82920;SDS011;72696;52.372;9.722;2023-09-19T12:18:49;6.82;;;2.60;;
82920;SDS011;72696;52.372;9.722;2023-09-19T12:24:13;5.20;;;2.55;;
82920;SDS011;72696;52.372;9.722;2023-09-19T12:29:15;8.02;;;2.80;;
82920;SDS011;72696;52.372;9.722;2023-09-19T12:31:55;8.07;;;3.03;;
82920;SDS011;72696;52.372;9.722;2023-09-19T12:34:25;7.65;;;3.22;;
82920;SDS011;72696;52.372;9.722;2023-09-19T12:39:41;8.88;;;3.05;;
82920;SDS011;72696;52.372;9.722;2023-09-19T12:42:09;6.25;;;2.70;;
82920;SDS011;72696;52.372;9.722;2023-09-19T12:44:42;6.18;;;2.83;;
82920;SDS011;72696;52.372;9.722;2023-09-19T12:47:16;4.80;;;2.60;;
82920;SDS011;72696;52.372;9.722;2023-09-19T12:55:24;8.05;;;2.80;;
82920;SDS011;72696;52.372;9.722;2023-09-19T12:58:11;5.88;;;2.50;;
82920;SDS011;72696;52.372;9.722;2023-09-19T13:00:39;6.85;;;2.63;;
82920;SDS011;72696;52.372;9.722;2023-09-19T13:03:10;4.40;;;2.53;;
82920;SDS011;72696;52.372;9.722;2023-09-19T13:05:50;6.65;;;2.90;;
82920;SDS011;72696;52.372;9.722;2023-09-19T13:08:25;12.20;;;3.10;;
82920;SDS011;72696;52.372;9.722;2023-09-19T13:13:27;5.55;;;3.08;;
82920;SDS011;72696;52.372;9.722;2023-09-19T13:15:53;8.20;;;2.80;;
82920;SDS011;72696;52.372;9.722;2023-09-19T13:18:18;7.47;;;3.47;;
82920;SDS011;72696;52.372;9.722;2023-09-19T13:21:04;6.68;;;2.75;;
82920;SDS011;72696;52.372;9.722;2023-09-19T13:23:30;6.90;;;2.78;;
82920;SDS011;72696;52.372;9.722;2023-09-19T13:25:56;5.63;;;2.83;;
82920;SDS011;72696;52.372;9.722;2023-09-19T13:28:21;5.70;;;2.83;;
82920;SDS011;72696;52.372;9.722;2023-09-19T13:30:47;5.75;;;2.88;;
82920;SDS011;72696;52.372;9.722;2023-09-19T13:33:13;7.80;;;2.60;;
82920;SDS011;72696;52.372;9.722;2023-09-19T13:35:45;5.65;;;2.47;;
82920;SDS011;72696;52.372;9.722;2023-09-19T13:38:11;5.25;;;2.60;;
82920;SDS011;72696;52.372;9.722;2023-09-19T13:40:40;6.57;;;2.78;;
82920;SDS011;72696;52.372;9.722;2023-09-19T13:43:08;6.97;;;2.78;;
82920;SDS011;72696;52.372;9.722;2023-09-19T13:45:34;8.88;;;3.40;;
82920;SDS011;72696;52.372;9.722;2023-09-19T13:47:59;7.18;;;2.50;;
82920;SDS011;72696;52.372;9.722;2023-09-19T13:50:24;9.20;;;3.00;;
82920;SDS011;72696;52.372;9.722;2023-09-19T13:52:51;5.18;;;2.75;;
82920;SDS011;72696;52.372;9.722;2023-09-19T13:55:18;6.45;;;2.83;;
82920;SDS011;72696;52.372;9.722;2023-09-19T13:57:45;9.18;;;3.00;;
82920;SDS011;72696;52.372;9.722;2023-09-19T14:00:12;7.05;;;2.88;;
82920;SDS011;72696;52.372;9.722;2023-09-19T14:02:41;4.78;;;2.83;;
82920;SDS011;72696;52.372;9.722;2023-09-19T14:05:08;4.03;;;2.58;;
82920;SDS011;72696;52.372;9.722;2023-09-19T14:07:33;5.00;;;2.60;;
82920;SDS011;72696;52.372;9.722;2023-09-19T14:09:58;4.53;;;2.58;;
82920;SDS011;72696;52.372;9.722;2023-09-19T14:12:24;6.57;;;2.60;;
82920;SDS011;72696;52.372;9.722;2023-09-19T14:14:49;7.03;;;2.83;;
82920;SDS011;72696;52.372;9.722;2023-09-19T14:17:18;8.68;;;2.38;;
82920;SDS011;72696;52.372;9.722;2023-09-19T14:19:43;6.22;;;2.80;;
82920;SDS011;72696;52.372;9.722;2023-09-19T14:22:10;6.32;;;2.67;;
82920;SDS011;72696;52.372;9.722;2023-09-19T14:24:35;4.40;;;2.42;;
82920;SDS011;72696;52.372;9.722;2023-09-19T14:27:01;5.60;;;2.67;;
82920;SDS011;72696;52.372;9.722;2023-09-19T14:29:32;6.40;;;3.00;;
82920;SDS011;72696;52.372;9.722;2023-09-19T14:31:57;5.13;;;2.80;;
82920;SDS011;72696;52.372;9.722;2023-09-19T14:34:22;6.82;;;2.60;;
82920;SDS011;72696;52.372;9.722;2023-09-19T14:36:48;7.25;;;2.67;;
82920;SDS011;72696;52.372;9.722;2023-09-19T14:39:14;3.63;;;2.20;;
82920;SDS011;72696;52.372;9.722;2023-09-19T14:41:39;6.20;;;2.80;;
82920;SDS011;72696;52.372;9.722;2023-09-19T14:44:04;5.93;;;2.60;;
82920;SDS011;72696;52.372;9.722;2023-09-19T14:46:30;8.13;;;2.88;;
82920;SDS011;72696;52.372;9.722;2023-09-19T14:48:56;5.93;;;2.47;;
82920;SDS011;72696;52.372;9.722;2023-09-19T14:51:24;6.07;;;2.40;;
82920;SDS011;72696;52.372;9.722;2023-09-19T14:53:49;7.88;;;2.88;;
82920;SDS011;72696;52.372;9.722;2023-09-19T14:56:15;3.92;;;2.30;;
82920;SDS011;72696;52.372;9.722;2023-09-19T14:58:44;5.63;;;2.38;;
82920;SDS011;72696;52.372;9.722;2023-09-19T15:01:11;6.45;;;2.63;;
82920;SDS011;72696;52.372;9.722;2023-09-19T15:03:37;8.52;;;3.33;;
82920;SDS011;72696;52.372;9.722;2023-09-19T15:06:07;4.80;;;2.75;;
82920;SDS011;72696;52.372;9.722;2023-09-19T15:08:44;6.32;;;2.60;;
82920;SDS011;72696;52.372;9.722;2023-09-19T15:11:12;6.35;;;2.90;;
82920;SDS011;72696;52.372;9.722;2023-09-19T15:13:45;6.25;;;2.70;;
82920;SDS011;72696;52.372;9.722;2023-09-19T15:16:11;4.88;;;2.50;;
82920;SDS011;72696;52.372;9.722;2023-09-19T15:18:39;4.60;;;2.30;;
82920;SDS011;72696;52.372;9.722;2023-09-19T15:21:07;4.63;;;2.40;;
82920;SDS011;72696;52.372;9.722;2023-09-19T15:23:34;5.15;;;2.30;;
82920;SDS011;72696;52.372;9.722;2023-09-19T15:26:03;5.93;;;2.53;;
82920;SDS011;72696;52.372;9.722;2023-09-19T15:28:29;4.78;;;2.22;;
82920;SDS011;72696;52.372;9.722;2023-09-19T15:33:29;6.07;;;2.55;;
82920;SDS011;72696;52.372;9.722;2023-09-19T15:38:30;6.30;;;2.75;;
82920;SDS011;72696;52.372;9.722;2023-09-19T15:40:56;4.43;;;2.22;;
82920;SDS011;72696;52.372;9.722;2023-09-19T15:43:22;7.28;;;2.55;;
82920;SDS011;72696;52.372;9.722;2023-09-19T15:45:48;6.50;;;2.10;;
82920;SDS011;72696;52.372;9.722;2023-09-19T15:48:14;5.00;;;2.20;;
82920;SDS011;72696;52.372;9.722;2023-09-19T15:50:39;5.32;;;2.30;;
82920;SDS011;72696;52.372;9.722;2023-09-19T15:53:07;4.95;;;2.30;;
82920;SDS011;72696;52.372;9.722;2023-09-19T15:55:35;3.67;;;2.50;;
82920;SDS011;72696;52.372;9.722;2023-09-19T16:00:31;6.30;;;2.53;;
82920;SDS011;72696;52.372;9.722;2023-09-19T16:02:59;4.30;;;2.15;;
82920;SDS011;72696;52.372;9.722;2023-09-19T16:05:28;5.18;;;2.55;;
82920;SDS011;72696;52.372;9.722;2023-09-19T16:07:53;5.13;;;2.40;;
82920;SDS011;72696;52.372;9.722;2023-09-19T16:10:19;6.22;;;2.53;;
82920;SDS011;72696;52.372;9.722;2023-09-19T16:12:45;5.07;;;2.63;;
82920;SDS011;72696;52.372;9.722;2023-09-19T16:15:11;6.22;;;2.42;;
82920;SDS011;72696;52.372;9.722;2023-09-19T16:17:36;5.50;;;2.38;;
82920;SDS011;72696;52.372;9.722;2023-09-19T16:20:02;4.75;;;2.53;;
82920;SDS011;72696;52.372;9.722;2023-09-19T16:22:28;6.45;;;2.33;;